CheckWX is a tool to help pilots better visualize weather data.  It is not intended as a substitute for an official pre-flight weather briefing.

11:20:19 UTC

KTVC TAF
Cherry Capital Airport
Traverse City, Michigan, USA
KTVC 240520Z 2406/2506 15007KT 6SM -SHRA BR OVC120 FM241200 16007KT P6SM VCSH OVC030 FM241900 18008KT 6SM -SHRA BR VCTS BKN045CB FM242300 20005KT 6SM -SHRA BR OVC060

Jun-24@
06:00 UTC

Jun-24 @ 06:00 UTC

Jun-24@
12:00 UTC

Jun-24 @ 12:00 UTC

KTVC 240520Z 2406/2506 15007KT 6SM -SHRA BR OVC120
Wind
  • 150° at 7 KTS
Conditions
Light Rain, Mist
Cloud Levels
  • Overcast at 12,000' AGL

Jun-24@
12:00 UTC

Jun-24 @ 12:00 UTC

Jun-24@
19:00 UTC

Jun-24 @ 19:00 UTC

FM241200 16007KT P6SM VCSH OVC030

From

From Standard forecast or significant change

Wind
  • 160° at 7 KTS
Cloud Levels
  • Overcast at 3,000' AGL

Jun-24@
19:00 UTC

Jun-24 @ 19:00 UTC

Jun-24@
23:00 UTC

Jun-24 @ 23:00 UTC

FM241900 18008KT 6SM -SHRA BR VCTS BKN045CB

From

From Standard forecast or significant change

Wind
  • 180° at 8 KTS
Conditions
Light Rain, Mist, Area Thunderstorm
Cloud Levels
  • Broken at 4,500' AGL

Jun-24@
23:00 UTC

Jun-24 @ 23:00 UTC

Jun-25@
06:00 UTC

Jun-25 @ 06:00 UTC

FM242300 20005KT 6SM -SHRA BR OVC060

From

From Standard forecast or significant change

Wind
  • 200° at 5 KTS
Conditions
Light Rain, Mist
Cloud Levels
  • Overcast at 6,000' AGL